sensor_id;sensor_type;location;lat;lon;timestamp;P1;durP1;ratioP1;P2;durP2;ratioP2
78308;SDS011;67566;42.022;21.356;2023-05-07T00:01:05;13.32;;;8.48;;
78308;SDS011;67566;42.022;21.356;2023-05-07T00:03:31;12.50;;;8.43;;
78308;SDS011;67566;42.022;21.356;2023-05-07T00:05:57;11.57;;;7.65;;
78308;SDS011;67566;42.022;21.356;2023-05-07T00:08:23;12.75;;;9.20;;
78308;SDS011;67566;42.022;21.356;2023-05-07T00:10:48;10.50;;;7.97;;
78308;SDS011;67566;42.022;21.356;2023-05-07T00:13:14;10.75;;;8.35;;
78308;SDS011;67566;42.022;21.356;2023-05-07T00:15:40;10.65;;;7.72;;
78308;SDS011;67566;42.022;21.356;2023-05-07T00:18:05;11.02;;;7.55;;
78308;SDS011;67566;42.022;21.356;2023-05-07T00:20:31;8.52;;;6.40;;
78308;SDS011;67566;42.022;21.356;2023-05-07T00:22:56;8.05;;;6.90;;
78308;SDS011;67566;42.022;21.356;2023-05-07T00:25:22;8.32;;;6.45;;
78308;SDS011;67566;42.022;21.356;2023-05-07T00:27:47;9.13;;;6.38;;
78308;SDS011;67566;42.022;21.356;2023-05-07T00:30:13;8.48;;;6.57;;
78308;SDS011;67566;42.022;21.356;2023-05-07T00:32:39;10.40;;;7.30;;
78308;SDS011;67566;42.022;21.356;2023-05-07T00:35:05;12.20;;;8.20;;
78308;SDS011;67566;42.022;21.356;2023-05-07T00:37:31;11.45;;;7.32;;
78308;SDS011;67566;42.022;21.356;2023-05-07T00:39:56;11.07;;;7.90;;
78308;SDS011;67566;42.022;21.356;2023-05-07T00:42:22;9.68;;;7.65;;
78308;SDS011;67566;42.022;21.356;2023-05-07T00:44:49;9.27;;;7.07;;
78308;SDS011;67566;42.022;21.356;2023-05-07T00:47:14;13.15;;;8.35;;
78308;SDS011;67566;42.022;21.356;2023-05-07T00:49:41;11.60;;;7.90;;
78308;SDS011;67566;42.022;21.356;2023-05-07T00:52:09;12.27;;;8.38;;
78308;SDS011;67566;42.022;21.356;2023-05-07T00:54:37;11.27;;;8.45;;
78308;SDS011;67566;42.022;21.356;2023-05-07T00:57:05;11.30;;;7.97;;
78308;SDS011;67566;42.022;21.356;2023-05-07T00:59:31;9.48;;;7.10;;
78308;SDS011;67566;42.022;21.356;2023-05-07T01:01:58;12.50;;;8.98;;
78308;SDS011;67566;42.022;21.356;2023-05-07T01:04:23;9.23;;;6.93;;
78308;SDS011;67566;42.022;21.356;2023-05-07T01:06:49;10.10;;;6.50;;
78308;SDS011;67566;42.022;21.356;2023-05-07T01:09:15;11.25;;;7.53;;
78308;SDS011;67566;42.022;21.356;2023-05-07T01:11:41;9.93;;;7.28;;
78308;SDS011;67566;42.022;21.356;2023-05-07T01:14:08;9.27;;;6.88;;
78308;SDS011;67566;42.022;21.356;2023-05-07T01:16:34;14.70;;;9.23;;
78308;SDS011;67566;42.022;21.356;2023-05-07T01:19:01;13.65;;;9.48;;
78308;SDS011;67566;42.022;21.356;2023-05-07T01:21:26;13.20;;;7.80;;
78308;SDS011;67566;42.022;21.356;2023-05-07T01:23:52;11.30;;;8.25;;
78308;SDS011;67566;42.022;21.356;2023-05-07T01:26:20;13.05;;;7.85;;
78308;SDS011;67566;42.022;21.356;2023-05-07T01:28:47;9.48;;;7.05;;
78308;SDS011;67566;42.022;21.356;2023-05-07T01:31:12;9.95;;;7.47;;
78308;SDS011;67566;42.022;21.356;2023-05-07T01:33:39;14.95;;;7.95;;
78308;SDS011;67566;42.022;21.356;2023-05-07T01:36:06;11.90;;;7.60;;
78308;SDS011;67566;42.022;21.356;2023-05-07T01:38:34;10.25;;;7.78;;
78308;SDS011;67566;42.022;21.356;2023-05-07T01:41:01;11.48;;;7.25;;
78308;SDS011;67566;42.022;21.356;2023-05-07T01:43:28;11.18;;;8.07;;
78308;SDS011;67566;42.022;21.356;2023-05-07T01:45:55;10.15;;;7.30;;
78308;SDS011;67566;42.022;21.356;2023-05-07T01:48:22;10.32;;;7.10;;
78308;SDS011;67566;42.022;21.356;2023-05-07T01:50:49;13.98;;;7.32;;
78308;SDS011;67566;42.022;21.356;2023-05-07T01:53:15;9.32;;;6.85;;
78308;SDS011;67566;42.022;21.356;2023-05-07T01:55:41;9.68;;;7.15;;
78308;SDS011;67566;42.022;21.356;2023-05-07T01:58:06;9.48;;;7.13;;
78308;SDS011;67566;42.022;21.356;2023-05-07T02:00:32;9.02;;;6.70;;
78308;SDS011;67566;42.022;21.356;2023-05-07T02:02:57;10.20;;;6.65;;
78308;SDS011;67566;42.022;21.356;2023-05-07T02:05:23;8.60;;;7.03;;
78308;SDS011;67566;42.022;21.356;2023-05-07T02:07:49;9.40;;;6.93;;
78308;SDS011;67566;42.022;21.356;2023-05-07T02:10:14;8.05;;;6.90;;
78308;SDS011;67566;42.022;21.356;2023-05-07T02:12:40;9.35;;;7.07;;
78308;SDS011;67566;42.022;21.356;2023-05-07T02:15:05;10.48;;;7.38;;
78308;SDS011;67566;42.022;21.356;2023-05-07T02:17:31;10.55;;;6.65;;
78308;SDS011;67566;42.022;21.356;2023-05-07T02:19:58;9.90;;;6.45;;
78308;SDS011;67566;42.022;21.356;2023-05-07T02:22:24;11.07;;;7.13;;
78308;SDS011;67566;42.022;21.356;2023-05-07T02:24:50;10.73;;;7.30;;
78308;SDS011;67566;42.022;21.356;2023-05-07T02:27:15;11.02;;;7.18;;
78308;SDS011;67566;42.022;21.356;2023-05-07T02:29:41;10.73;;;7.20;;
78308;SDS011;67566;42.022;21.356;2023-05-07T02:32:06;10.65;;;6.78;;
78308;SDS011;67566;42.022;21.356;2023-05-07T02:34:32;9.80;;;7.03;;
78308;SDS011;67566;42.022;21.356;2023-05-07T02:36:57;9.88;;;7.22;;
78308;SDS011;67566;42.022;21.356;2023-05-07T02:39:22;9.68;;;7.40;;
78308;SDS011;67566;42.022;21.356;2023-05-07T02:41:48;10.10;;;7.57;;
78308;SDS011;67566;42.022;21.356;2023-05-07T02:44:13;12.57;;;7.72;;
78308;SDS011;67566;42.022;21.356;2023-05-07T02:46:39;11.93;;;7.30;;
78308;SDS011;67566;42.022;21.356;2023-05-07T02:49:04;12.82;;;7.28;;
78308;SDS011;67566;42.022;21.356;2023-05-07T02:51:31;10.13;;;7.90;;
78308;SDS011;67566;42.022;21.356;2023-05-07T02:53:56;8.57;;;5.90;;
78308;SDS011;67566;42.022;21.356;2023-05-07T02:56:22;9.48;;;6.82;;
78308;SDS011;67566;42.022;21.356;2023-05-07T02:58:47;9.07;;;6.38;;
78308;SDS011;67566;42.022;21.356;2023-05-07T03:01:13;10.45;;;7.38;;
78308;SDS011;67566;42.022;21.356;2023-05-07T03:03:39;9.05;;;7.03;;
78308;SDS011;67566;42.022;21.356;2023-05-07T03:06:05;9.85;;;6.85;;
78308;SDS011;67566;42.022;21.356;2023-05-07T03:08:31;9.18;;;6.97;;
78308;SDS011;67566;42.022;21.356;2023-05-07T03:10:57;9.48;;;6.40;;
78308;SDS011;67566;42.022;21.356;2023-05-07T03:13:23;12.18;;;7.38;;
78308;SDS011;67566;42.022;21.356;2023-05-07T03:15:48;10.43;;;7.20;;
78308;SDS011;67566;42.022;21.356;2023-05-07T03:18:14;9.63;;;6.72;;
78308;SDS011;67566;42.022;21.356;2023-05-07T03:20:39;9.35;;;6.95;;
78308;SDS011;67566;42.022;21.356;2023-05-07T03:23:05;11.05;;;6.88;;
78308;SDS011;67566;42.022;21.356;2023-05-07T03:25:31;11.48;;;6.15;;
78308;SDS011;67566;42.022;21.356;2023-05-07T03:27:57;8.93;;;6.70;;
78308;SDS011;67566;42.022;21.356;2023-05-07T03:30:22;8.23;;;6.22;;
78308;SDS011;67566;42.022;21.356;2023-05-07T03:32:48;8.13;;;6.47;;
78308;SDS011;67566;42.022;21.356;2023-05-07T03:35:13;12.07;;;8.32;;
78308;SDS011;67566;42.022;21.356;2023-05-07T03:37:39;13.43;;;7.82;;
78308;SDS011;67566;42.022;21.356;2023-05-07T03:40:05;12.82;;;7.10;;
78308;SDS011;67566;42.022;21.356;2023-05-07T03:42:32;10.55;;;7.60;;
78308;SDS011;67566;42.022;21.356;2023-05-07T03:44:57;11.27;;;7.70;;
78308;SDS011;67566;42.022;21.356;2023-05-07T03:47:23;8.27;;;6.65;;
78308;SDS011;67566;42.022;21.356;2023-05-07T03:49:48;7.95;;;6.22;;
78308;SDS011;67566;42.022;21.356;2023-05-07T03:52:15;8.13;;;6.63;;
78308;SDS011;67566;42.022;21.356;2023-05-07T03:54:41;11.23;;;6.47;;
78308;SDS011;67566;42.022;21.356;2023-05-07T03:57:06;8.40;;;6.53;;
78308;SDS011;67566;42.022;21.356;2023-05-07T03:59:31;8.68;;;6.22;;
78308;SDS011;67566;42.022;21.356;2023-05-07T04:01:57;11.07;;;6.88;;
78308;SDS011;67566;42.022;21.356;2023-05-07T04:04:23;10.85;;;7.32;;
78308;SDS011;67566;42.022;21.356;2023-05-07T04:06:49;11.32;;;6.88;;
78308;SDS011;67566;42.022;21.356;2023-05-07T04:09:14;11.23;;;7.78;;
78308;SDS011;67566;42.022;21.356;2023-05-07T04:11:40;12.75;;;7.68;;
78308;SDS011;67566;42.022;21.356;2023-05-07T04:14:05;11.18;;;7.35;;
78308;SDS011;67566;42.022;21.356;2023-05-07T04:16:31;9.43;;;7.05;;
78308;SDS011;67566;42.022;21.356;2023-05-07T04:18:56;10.90;;;7.35;;
78308;SDS011;67566;42.022;21.356;2023-05-07T04:21:22;10.35;;;7.47;;
78308;SDS011;67566;42.022;21.356;2023-05-07T04:23:47;9.07;;;6.93;;
78308;SDS011;67566;42.022;21.356;2023-05-07T04:26:14;11.95;;;6.95;;
78308;SDS011;67566;42.022;21.356;2023-05-07T04:28:41;9.98;;;7.20;;
78308;SDS011;67566;42.022;21.356;2023-05-07T04:31:07;8.88;;;6.57;;
78308;SDS011;67566;42.022;21.356;2023-05-07T04:33:32;10.30;;;7.30;;
78308;SDS011;67566;42.022;21.356;2023-05-07T04:36:00;12.98;;;7.65;;
78308;SDS011;67566;42.022;21.356;2023-05-07T04:38:31;11.55;;;8.60;;
78308;SDS011;67566;42.022;21.356;2023-05-07T04:40:57;11.15;;;7.50;;
78308;SDS011;67566;42.022;21.356;2023-05-07T04:43:22;8.23;;;6.28;;
78308;SDS011;67566;42.022;21.356;2023-05-07T04:45:50;12.60;;;7.03;;
78308;SDS011;67566;42.022;21.356;2023-05-07T04:48:18;8.95;;;5.43;;
78308;SDS011;67566;42.022;21.356;2023-05-07T04:50:48;8.35;;;5.63;;
78308;SDS011;67566;42.022;21.356;2023-05-07T04:53:14;7.65;;;5.57;;
78308;SDS011;67566;42.022;21.356;2023-05-07T04:55:40;9.00;;;6.15;;
78308;SDS011;67566;42.022;21.356;2023-05-07T04:58:05;10.00;;;5.90;;
78308;SDS011;67566;42.022;21.356;2023-05-07T05:00:31;9.85;;;6.35;;
78308;SDS011;67566;42.022;21.356;2023-05-07T05:02:56;9.00;;;5.82;;
78308;SDS011;67566;42.022;21.356;2023-05-07T05:05:22;10.25;;;6.20;;
78308;SDS011;67566;42.022;21.356;2023-05-07T05:07:47;9.52;;;6.10;;
78308;SDS011;67566;42.022;21.356;2023-05-07T05:10:13;8.50;;;6.10;;
78308;SDS011;67566;42.022;21.356;2023-05-07T05:12:38;10.25;;;5.75;;
78308;SDS011;67566;42.022;21.356;2023-05-07T05:15:04;9.95;;;5.75;;
78308;SDS011;67566;42.022;21.356;2023-05-07T05:17:30;9.32;;;5.82;;
78308;SDS011;67566;42.022;21.356;2023-05-07T05:19:56;8.48;;;5.85;;
78308;SDS011;67566;42.022;21.356;2023-05-07T05:22:21;10.57;;;6.43;;
78308;SDS011;67566;42.022;21.356;2023-05-07T05:24:47;9.73;;;6.15;;
78308;SDS011;67566;42.022;21.356;2023-05-07T05:27:12;12.35;;;5.70;;
78308;SDS011;67566;42.022;21.356;2023-05-07T05:29:38;10.65;;;5.72;;
78308;SDS011;67566;42.022;21.356;2023-05-07T05:32:03;7.45;;;5.38;;
78308;SDS011;67566;42.022;21.356;2023-05-07T05:34:29;6.75;;;5.05;;
78308;SDS011;67566;42.022;21.356;2023-05-07T05:36:54;7.60;;;5.80;;
78308;SDS011;67566;42.022;21.356;2023-05-07T05:39:20;7.10;;;4.78;;
78308;SDS011;67566;42.022;21.356;2023-05-07T05:41:48;6.22;;;4.50;;
78308;SDS011;67566;42.022;21.356;2023-05-07T05:44:13;10.02;;;5.68;;
78308;SDS011;67566;42.022;21.356;2023-05-07T05:46:39;9.82;;;6.25;;
78308;SDS011;67566;42.022;21.356;2023-05-07T05:49:04;7.78;;;5.45;;
78308;SDS011;67566;42.022;21.356;2023-05-07T05:51:30;6.93;;;5.28;;
78308;SDS011;67566;42.022;21.356;2023-05-07T05:53:55;7.38;;;5.38;;
78308;SDS011;67566;42.022;21.356;2023-05-07T05:56:21;8.05;;;5.75;;
78308;SDS011;67566;42.022;21.356;2023-05-07T05:58:46;8.05;;;5.72;;
78308;SDS011;67566;42.022;21.356;2023-05-07T06:01:12;10.38;;;6.18;;
78308;SDS011;67566;42.022;21.356;2023-05-07T06:03:37;7.97;;;5.63;;
78308;SDS011;67566;42.022;21.356;2023-05-07T06:06:03;7.07;;;5.75;;
78308;SDS011;67566;42.022;21.356;2023-05-07T06:08:29;7.95;;;5.00;;
78308;SDS011;67566;42.022;21.356;2023-05-07T06:10:55;8.27;;;6.68;;
78308;SDS011;67566;42.022;21.356;2023-05-07T06:13:21;9.60;;;6.70;;
78308;SDS011;67566;42.022;21.356;2023-05-07T06:15:48;11.43;;;6.80;;
78308;SDS011;67566;42.022;21.356;2023-05-07T06:18:14;9.35;;;7.32;;
78308;SDS011;67566;42.022;21.356;2023-05-07T06:20:39;10.02;;;6.90;;
78308;SDS011;67566;42.022;21.356;2023-05-07T06:23:05;10.00;;;7.10;;
78308;SDS011;67566;42.022;21.356;2023-05-07T06:25:30;10.30;;;7.35;;
78308;SDS011;67566;42.022;21.356;2023-05-07T06:27:56;8.77;;;7.03;;
78308;SDS011;67566;42.022;21.356;2023-05-07T06:30:21;11.18;;;7.20;;
78308;SDS011;67566;42.022;21.356;2023-05-07T06:32:47;8.52;;;6.40;;
78308;SDS011;67566;42.022;21.356;2023-05-07T06:35:12;10.43;;;6.95;;
78308;SDS011;67566;42.022;21.356;2023-05-07T06:37:38;8.00;;;7.00;;
78308;SDS011;67566;42.022;21.356;2023-05-07T06:40:05;8.63;;;6.55;;
78308;SDS011;67566;42.022;21.356;2023-05-07T06:42:32;8.45;;;6.85;;
78308;SDS011;67566;42.022;21.356;2023-05-07T06:44:57;11.00;;;7.22;;
78308;SDS011;67566;42.022;21.356;2023-05-07T06:47:23;9.15;;;6.63;;
78308;SDS011;67566;42.022;21.356;2023-05-07T06:49:48;8.85;;;7.32;;
78308;SDS011;67566;42.022;21.356;2023-05-07T06:52:14;8.85;;;6.80;;
78308;SDS011;67566;42.022;21.356;2023-05-07T06:54:39;8.63;;;7.55;;
78308;SDS011;67566;42.022;21.356;2023-05-07T06:57:05;8.95;;;6.95;;
78308;SDS011;67566;42.022;21.356;2023-05-07T06:59:30;9.80;;;7.97;;
78308;SDS011;67566;42.022;21.356;2023-05-07T07:01:56;9.77;;;6.93;;
78308;SDS011;67566;42.022;21.356;2023-05-07T07:04:21;10.93;;;8.13;;
78308;SDS011;67566;42.022;21.356;2023-05-07T07:06:48;12.63;;;7.15;;
78308;SDS011;67566;42.022;21.356;2023-05-07T07:09:14;12.93;;;8.98;;
78308;SDS011;67566;42.022;21.356;2023-05-07T07:11:39;18.88;;;12.30;;
78308;SDS011;67566;42.022;21.356;2023-05-07T07:14:05;19.40;;;12.55;;
78308;SDS011;67566;42.022;21.356;2023-05-07T07:16:30;25.77;;;15.55;;
78308;SDS011;67566;42.022;21.356;2023-05-07T07:18:56;21.55;;;14.98;;
78308;SDS011;67566;42.022;21.356;2023-05-07T07:21:21;18.80;;;12.38;;
78308;SDS011;67566;42.022;21.356;2023-05-07T07:23:47;20.05;;;13.55;;
78308;SDS011;67566;42.022;21.356;2023-05-07T07:26:12;9.15;;;6.38;;
78308;SDS011;67566;42.022;21.356;2023-05-07T07:28:44;7.97;;;5.97;;
78308;SDS011;67566;42.022;21.356;2023-05-07T07:31:11;10.80;;;7.40;;
78308;SDS011;67566;42.022;21.356;2023-05-07T07:33:37;10.30;;;7.05;;
78308;SDS011;67566;42.022;21.356;2023-05-07T07:36:02;9.07;;;7.03;;
78308;SDS011;67566;42.022;21.356;2023-05-07T07:38:28;9.75;;;6.80;;
78308;SDS011;67566;42.022;21.356;2023-05-07T07:40:54;11.13;;;6.25;;
78308;SDS011;67566;42.022;21.356;2023-05-07T07:43:19;11.40;;;7.82;;
78308;SDS011;67566;42.022;21.356;2023-05-07T07:45:48;10.35;;;6.40;;
78308;SDS011;67566;42.022;21.356;2023-05-07T07:48:13;8.07;;;6.13;;
78308;SDS011;67566;42.022;21.356;2023-05-07T07:50:39;10.38;;;6.90;;
78308;SDS011;67566;42.022;21.356;2023-05-07T07:53:05;13.80;;;9.18;;
78308;SDS011;67566;42.022;21.356;2023-05-07T07:55:30;17.58;;;10.23;;
78308;SDS011;67566;42.022;21.356;2023-05-07T07:57:57;16.08;;;10.77;;
78308;SDS011;67566;42.022;21.356;2023-05-07T08:00:22;12.75;;;9.68;;
78308;SDS011;67566;42.022;21.356;2023-05-07T08:02:48;14.93;;;9.70;;
78308;SDS011;67566;42.022;21.356;2023-05-07T08:05:13;11.10;;;8.38;;
78308;SDS011;67566;42.022;21.356;2023-05-07T08:07:40;12.90;;;8.55;;
78308;SDS011;67566;42.022;21.356;2023-05-07T08:10:06;9.60;;;6.90;;
78308;SDS011;67566;42.022;21.356;2023-05-07T08:12:32;11.93;;;6.82;;
78308;SDS011;67566;42.022;21.356;2023-05-07T08:14:57;8.70;;;7.65;;
78308;SDS011;67566;42.022;21.356;2023-05-07T08:17:23;9.43;;;8.25;;
78308;SDS011;67566;42.022;21.356;2023-05-07T08:19:49;9.30;;;7.25;;
78308;SDS011;67566;42.022;21.356;2023-05-07T08:22:14;8.93;;;6.43;;
78308;SDS011;67566;42.022;21.356;2023-05-07T08:24:40;11.07;;;7.28;;
78308;SDS011;67566;42.022;21.356;2023-05-07T08:27:06;11.32;;;7.50;;
78308;SDS011;67566;42.022;21.356;2023-05-07T08:29:31;12.60;;;7.28;;
78308;SDS011;67566;42.022;21.356;2023-05-07T08:31:58;9.88;;;6.47;;
78308;SDS011;67566;42.022;21.356;2023-05-07T08:34:23;8.60;;;7.45;;
78308;SDS011;67566;42.022;21.356;2023-05-07T08:36:49;13.27;;;7.72;;
78308;SDS011;67566;42.022;21.356;2023-05-07T08:39:15;12.25;;;7.78;;
78308;SDS011;67566;42.022;21.356;2023-05-07T08:41:43;13.30;;;8.38;;
78308;SDS011;67566;42.022;21.356;2023-05-07T08:44:11;8.52;;;7.15;;
78308;SDS011;67566;42.022;21.356;2023-05-07T08:46:38;8.80;;;6.43;;
78308;SDS011;67566;42.022;21.356;2023-05-07T08:49:05;10.57;;;7.03;;
78308;SDS011;67566;42.022;21.356;2023-05-07T08:51:30;8.00;;;6.50;;
78308;SDS011;67566;42.022;21.356;2023-05-07T08:53:56;8.95;;;6.93;;
78308;SDS011;67566;42.022;21.356;2023-05-07T08:56:22;9.10;;;6.53;;
78308;SDS011;67566;42.022;21.356;2023-05-07T08:58:47;8.02;;;5.78;;
78308;SDS011;67566;42.022;21.356;2023-05-07T09:01:14;7.95;;;5.60;;
78308;SDS011;67566;42.022;21.356;2023-05-07T09:03:40;7.25;;;5.85;;
78308;SDS011;67566;42.022;21.356;2023-05-07T09:06:09;8.55;;;7.05;;
78308;SDS011;67566;42.022;21.356;2023-05-07T09:08:35;9.93;;;6.75;;
78308;SDS011;67566;42.022;21.356;2023-05-07T09:11:01;11.18;;;6.97;;
78308;SDS011;67566;42.022;21.356;2023-05-07T09:13:27;9.73;;;6.72;;
78308;SDS011;67566;42.022;21.356;2023-05-07T09:15:53;9.88;;;7.35;;
78308;SDS011;67566;42.022;21.356;2023-05-07T09:18:18;7.35;;;6.35;;
78308;SDS011;67566;42.022;21.356;2023-05-07T09:20:44;9.07;;;6.68;;
78308;SDS011;67566;42.022;21.356;2023-05-07T09:23:09;8.18;;;5.60;;
78308;SDS011;67566;42.022;21.356;2023-05-07T09:25:35;10.00;;;7.00;;
78308;SDS011;67566;42.022;21.356;2023-05-07T09:28:02;12.13;;;6.78;;
78308;SDS011;67566;42.022;21.356;2023-05-07T09:30:29;11.02;;;5.60;;
78308;SDS011;67566;42.022;21.356;2023-05-07T09:32:55;7.47;;;5.22;;
78308;SDS011;67566;42.022;21.356;2023-05-07T09:35:22;6.30;;;4.57;;
78308;SDS011;67566;42.022;21.356;2023-05-07T09:37:49;8.52;;;5.07;;
78308;SDS011;67566;42.022;21.356;2023-05-07T09:40:24;7.60;;;4.93;;
78308;SDS011;67566;42.022;21.356;2023-05-07T09:42:54;7.03;;;4.88;;
78308;SDS011;67566;42.022;21.356;2023-05-07T09:45:25;6.88;;;6.00;;
78308;SDS011;67566;42.022;21.356;2023-05-07T09:47:53;9.05;;;5.60;;
78308;SDS011;67566;42.022;21.356;2023-05-07T09:50:28;9.52;;;5.47;;
78308;SDS011;67566;42.022;21.356;2023-05-07T09:52:56;8.93;;;5.70;;
78308;SDS011;67566;42.022;21.356;2023-05-07T09:55:22;7.80;;;5.53;;
78308;SDS011;67566;42.022;21.356;2023-05-07T09:57:51;6.25;;;5.10;;
78308;SDS011;67566;42.022;21.356;2023-05-07T10:02:51;5.28;;;4.32;;
78308;SDS011;67566;42.022;21.356;2023-05-07T10:05:21;7.82;;;4.90;;
78308;SDS011;67566;42.022;21.356;2023-05-07T10:07:47;11.40;;;6.07;;
78308;SDS011;67566;42.022;21.356;2023-05-07T10:10:13;6.22;;;5.07;;
78308;SDS011;67566;42.022;21.356;2023-05-07T10:12:40;6.30;;;5.05;;
78308;SDS011;67566;42.022;21.356;2023-05-07T10:15:06;8.02;;;5.97;;
78308;SDS011;67566;42.022;21.356;2023-05-07T10:20:02;8.80;;;5.15;;
78308;SDS011;67566;42.022;21.356;2023-05-07T10:22:30;10.30;;;5.72;;
78308;SDS011;67566;42.022;21.356;2023-05-07T10:25:03;6.70;;;5.28;;
78308;SDS011;67566;42.022;21.356;2023-05-07T10:27:39;7.55;;;4.95;;
78308;SDS011;67566;42.022;21.356;2023-05-07T10:32:59;6.38;;;4.95;;
78308;SDS011;67566;42.022;21.356;2023-05-07T10:35:31;10.75;;;5.68;;
78308;SDS011;67566;42.022;21.356;2023-05-07T10:38:03;6.07;;;4.10;;
78308;SDS011;67566;42.022;21.356;2023-05-07T10:40:30;6.05;;;4.38;;
78308;SDS011;67566;42.022;21.356;2023-05-07T10:42:56;4.88;;;3.88;;
78308;SDS011;67566;42.022;21.356;2023-05-07T10:45:24;5.65;;;4.28;;
78308;SDS011;67566;42.022;21.356;2023-05-07T10:50:35;6.15;;;3.97;;
78308;SDS011;67566;42.022;21.356;2023-05-07T10:55:46;8.07;;;4.90;;
78308;SDS011;67566;42.022;21.356;2023-05-07T11:00:49;5.95;;;4.00;;
78308;SDS011;67566;42.022;21.356;2023-05-07T11:03:16;5.90;;;4.65;;
78308;SDS011;67566;42.022;21.356;2023-05-07T11:05:42;6.95;;;5.45;;
78308;SDS011;67566;42.022;21.356;2023-05-07T11:08:08;6.05;;;4.32;;
78308;SDS011;67566;42.022;21.356;2023-05-07T11:10:53;7.28;;;4.28;;
78308;SDS011;67566;42.022;21.356;2023-05-07T11:16:16;5.57;;;3.33;;
78308;SDS011;67566;42.022;21.356;2023-05-07T11:18:49;5.88;;;3.70;;
78308;SDS011;67566;42.022;21.356;2023-05-07T11:21:38;5.45;;;3.72;;
78308;SDS011;67566;42.022;21.356;2023-05-07T11:24:05;6.80;;;3.80;;
78308;SDS011;67566;42.022;21.356;2023-05-07T11:26:45;5.70;;;3.67;;
78308;SDS011;67566;42.022;21.356;2023-05-07T11:29:12;7.07;;;3.75;;
78308;SDS011;67566;42.022;21.356;2023-05-07T11:31:51;4.38;;;3.50;;
78308;SDS011;67566;42.022;21.356;2023-05-07T11:34:25;5.72;;;4.07;;
78308;SDS011;67566;42.022;21.356;2023-05-07T11:36:54;6.70;;;3.33;;
78308;SDS011;67566;42.022;21.356;2023-05-07T11:39:26;5.32;;;3.95;;
78308;SDS011;67566;42.022;21.356;2023-05-07T11:44:21;4.03;;;3.03;;
78308;SDS011;67566;42.022;21.356;2023-05-07T11:46:47;5.22;;;3.72;;
78308;SDS011;67566;42.022;21.356;2023-05-07T11:49:14;4.82;;;3.55;;
78308;SDS011;67566;42.022;21.356;2023-05-07T11:51:40;6.10;;;3.63;;
78308;SDS011;67566;42.022;21.356;2023-05-07T11:54:09;7.22;;;3.60;;
78308;SDS011;67566;42.022;21.356;2023-05-07T11:56:36;5.13;;;3.42;;
78308;SDS011;67566;42.022;21.356;2023-05-07T11:59:02;4.80;;;2.95;;
78308;SDS011;67566;42.022;21.356;2023-05-07T12:01:28;5.45;;;3.30;;
78308;SDS011;67566;42.022;21.356;2023-05-07T12:03:56;5.38;;;3.78;;
78308;SDS011;67566;42.022;21.356;2023-05-07T12:06:21;5.55;;;3.45;;
78308;SDS011;67566;42.022;21.356;2023-05-07T12:08:47;3.95;;;3.20;;
78308;SDS011;67566;42.022;21.356;2023-05-07T12:11:16;4.15;;;3.60;;
78308;SDS011;67566;42.022;21.356;2023-05-07T12:13:47;5.07;;;3.17;;
78308;SDS011;67566;42.022;21.356;2023-05-07T12:16:13;6.47;;;3.60;;
78308;SDS011;67566;42.022;21.356;2023-05-07T12:18:39;5.60;;;3.65;;
78308;SDS011;67566;42.022;21.356;2023-05-07T12:21:05;5.20;;;3.35;;
78308;SDS011;67566;42.022;21.356;2023-05-07T12:23:31;4.88;;;3.58;;
78308;SDS011;67566;42.022;21.356;2023-05-07T12:25:58;6.00;;;3.45;;
78308;SDS011;67566;42.022;21.356;2023-05-07T12:28:24;6.43;;;3.38;;
78308;SDS011;67566;42.022;21.356;2023-05-07T12:30:50;7.43;;;3.08;;
78308;SDS011;67566;42.022;21.356;2023-05-07T12:33:17;6.30;;;3.90;;
78308;SDS011;67566;42.022;21.356;2023-05-07T12:35:46;4.55;;;3.10;;
78308;SDS011;67566;42.022;21.356;2023-05-07T12:38:16;4.68;;;3.13;;
78308;SDS011;67566;42.022;21.356;2023-05-07T12:40:50;4.80;;;2.95;;
78308;SDS011;67566;42.022;21.356;2023-05-07T12:45:50;5.18;;;2.85;;
78308;SDS011;67566;42.022;21.356;2023-05-07T12:48:16;6.38;;;3.88;;
78308;SDS011;67566;42.022;21.356;2023-05-07T12:50:42;4.22;;;2.97;;
78308;SDS011;67566;42.022;21.356;2023-05-07T12:53:10;4.00;;;3.33;;
78308;SDS011;67566;42.022;21.356;2023-05-07T12:55:44;5.38;;;2.95;;
78308;SDS011;67566;42.022;21.356;2023-05-07T12:58:18;4.28;;;3.15;;
78308;SDS011;67566;42.022;21.356;2023-05-07T13:00:47;4.53;;;3.20;;
78308;SDS011;67566;42.022;21.356;2023-05-07T13:03:20;4.88;;;3.10;;
78308;SDS011;67566;42.022;21.356;2023-05-07T13:05:48;4.43;;;3.45;;
78308;SDS011;67566;42.022;21.356;2023-05-07T13:08:23;4.60;;;3.22;;
78308;SDS011;67566;42.022;21.356;2023-05-07T13:10:58;4.47;;;3.08;;
78308;SDS011;67566;42.022;21.356;2023-05-07T13:13:26;6.93;;;3.40;;
78308;SDS011;67566;42.022;21.356;2023-05-07T13:15:52;5.40;;;3.00;;
78308;SDS011;67566;42.022;21.356;2023-05-07T13:18:17;7.22;;;3.72;;
78308;SDS011;67566;42.022;21.356;2023-05-07T13:20:43;5.13;;;3.55;;
78308;SDS011;67566;42.022;21.356;2023-05-07T13:23:08;4.88;;;3.33;;
78308;SDS011;67566;42.022;21.356;2023-05-07T13:25:34;5.25;;;3.22;;
78308;SDS011;67566;42.022;21.356;2023-05-07T13:27:59;5.28;;;3.22;;
78308;SDS011;67566;42.022;21.356;2023-05-07T13:30:25;5.60;;;3.30;;
78308;SDS011;67566;42.022;21.356;2023-05-07T13:32:51;4.55;;;3.28;;
78308;SDS011;67566;42.022;21.356;2023-05-07T13:35:17;6.93;;;3.53;;
78308;SDS011;67566;42.022;21.356;2023-05-07T13:37:42;6.63;;;3.53;;
78308;SDS011;67566;42.022;21.356;2023-05-07T13:40:08;4.53;;;3.25;;
78308;SDS011;67566;42.022;21.356;2023-05-07T13:42:34;4.68;;;3.08;;
78308;SDS011;67566;42.022;21.356;2023-05-07T13:45:00;5.15;;;3.45;;
78308;SDS011;67566;42.022;21.356;2023-05-07T13:47:25;6.38;;;3.35;;
78308;SDS011;67566;42.022;21.356;2023-05-07T13:49:51;4.43;;;3.80;;
78308;SDS011;67566;42.022;21.356;2023-05-07T13:52:17;5.72;;;3.88;;
78308;SDS011;67566;42.022;21.356;2023-05-07T13:54:42;3.78;;;3.20;;
78308;SDS011;67566;42.022;21.356;2023-05-07T13:57:08;4.28;;;3.38;;
78308;SDS011;67566;42.022;21.356;2023-05-07T13:59:34;6.25;;;3.92;;
78308;SDS011;67566;42.022;21.356;2023-05-07T14:28:51;3.95;;;3.47;;
78308;SDS011;67566;42.022;21.356;2023-05-07T14:31:17;4.35;;;3.70;;
78308;SDS011;67566;42.022;21.356;2023-05-07T14:33:42;5.72;;;4.40;;
78308;SDS011;67566;42.022;21.356;2023-05-07T14:36:08;5.22;;;3.65;;
78308;SDS011;67566;42.022;21.356;2023-05-07T14:38:33;6.00;;;3.70;;
78308;SDS011;67566;42.022;21.356;2023-05-07T14:40:59;6.35;;;4.28;;
78308;SDS011;67566;42.022;21.356;2023-05-07T14:43:25;5.43;;;3.95;;
78308;SDS011;67566;42.022;21.356;2023-05-07T14:45:50;4.40;;;3.78;;
78308;SDS011;67566;42.022;21.356;2023-05-07T14:48:16;5.05;;;3.75;;
78308;SDS011;67566;42.022;21.356;2023-05-07T14:50:42;5.43;;;3.28;;
78308;SDS011;67566;42.022;21.356;2023-05-07T14:53:07;5.63;;;3.33;;
78308;SDS011;67566;42.022;21.356;2023-05-07T14:55:33;5.72;;;3.58;;
78308;SDS011;67566;42.022;21.356;2023-05-07T14:58:00;7.53;;;4.15;;
78308;SDS011;67566;42.022;21.356;2023-05-07T15:00:25;4.75;;;3.78;;
78308;SDS011;67566;42.022;21.356;2023-05-07T15:02:51;5.85;;;3.58;;
78308;SDS011;67566;42.022;21.356;2023-05-07T15:05:17;5.78;;;3.83;;
78308;SDS011;67566;42.022;21.356;2023-05-07T15:07:44;5.57;;;3.63;;
78308;SDS011;67566;42.022;21.356;2023-05-07T15:10:09;4.68;;;3.78;;
78308;SDS011;67566;42.022;21.356;2023-05-07T15:12:35;6.70;;;3.70;;
78308;SDS011;67566;42.022;21.356;2023-05-07T15:15:01;5.15;;;3.80;;
78308;SDS011;67566;42.022;21.356;2023-05-07T15:17:26;5.35;;;3.50;;